createdAt,value
2019-02-19T00:01:23.721Z,12.27
2019-02-19T00:06:29.475Z,11.13
2019-02-19T00:11:35.527Z,12.23
2019-02-19T00:16:43.501Z,12.80
2019-02-19T00:21:50.192Z,11.00
2019-02-19T00:26:57.553Z,9.80
2019-02-19T00:32:05.852Z,8.60
2019-02-19T00:37:11.914Z,6.90
2019-02-19T00:42:20.755Z,7.00
2019-02-19T00:47:26.417Z,9.83
2019-02-19T00:52:34.596Z,9.57
2019-02-19T00:57:44.630Z,9.40
2019-02-19T01:02:53.218Z,8.90
2019-02-19T01:07:59.911Z,9.33
2019-02-19T01:13:08.505Z,8.57
2019-02-19T01:18:17.863Z,8.20
2019-02-19T01:23:23.676Z,8.20
2019-02-19T01:28:35.645Z,8.00
2019-02-19T01:33:41.314Z,8.13
2019-02-19T01:38:47.172Z,7.90
2019-02-19T01:43:52.839Z,7.87
2019-02-19T01:49:07.130Z,7.20
2019-02-19T01:54:13.037Z,7.20
2019-02-19T01:59:18.779Z,6.33
2019-02-19T02:04:31.045Z,7.47
2019-02-19T02:09:36.708Z,6.50
2019-02-19T02:14:45.040Z,5.43
2019-02-19T02:19:52.736Z,6.20
2019-02-19T02:25:03.391Z,7.17
2019-02-19T02:30:12.708Z,6.47
2019-02-19T02:35:20.129Z,6.70
2019-02-19T02:40:26.333Z,5.57
2019-02-19T02:45:35.416Z,5.87
2019-02-19T02:50:45.420Z,4.73
2019-02-19T02:55:51.158Z,6.20
2019-02-19T03:00:57.335Z,7.20
2019-02-19T03:06:26.786Z,5.97
2019-02-19T03:11:35.431Z,6.10
2019-02-19T03:16:43.741Z,7.33
2019-02-19T03:21:49.432Z,6.00
2019-02-19T03:26:54.998Z,6.47
2019-02-19T03:32:01.779Z,7.30
2019-02-19T03:37:10.155Z,6.90
2019-02-19T03:42:16.029Z,7.10
2019-02-19T03:47:21.549Z,6.43
2019-02-19T03:52:31.290Z,7.47
2019-02-19T03:57:39.392Z,7.40
2019-02-19T04:02:52.247Z,7.20
2019-02-19T04:08:08.844Z,6.50
2019-02-19T04:13:15.573Z,7.00
2019-02-19T04:18:21.146Z,7.70
2019-02-19T04:23:26.768Z,6.53
2019-02-19T04:28:32.535Z,6.03
2019-02-19T04:33:40.675Z,7.37
2019-02-19T04:38:47.953Z,6.37
2019-02-19T04:43:53.477Z,6.97
2019-02-19T04:48:59.669Z,6.20
2019-02-19T04:54:05.672Z,4.83
2019-02-19T04:59:11.371Z,5.70
2019-02-19T05:04:19.336Z,6.67
2019-02-19T05:09:26.010Z,7.10
2019-02-19T05:14:34.863Z,6.10
2019-02-19T05:19:40.547Z,6.70
2019-02-19T05:24:48.695Z,6.30
2019-02-19T05:29:57.254Z,6.10
2019-02-19T05:35:10.338Z,4.40
2019-02-19T05:40:16.367Z,5.43
2019-02-19T05:45:24.405Z,4.10
2019-02-19T05:50:32.432Z,4.03
2019-02-19T05:55:40.797Z,4.73
2019-02-19T06:00:50.405Z,3.90
2019-02-19T06:05:56.364Z,4.20
2019-02-19T06:11:10.851Z,3.83
2019-02-19T06:16:21.627Z,4.10
2019-02-19T06:21:27.224Z,5.17
2019-02-19T06:26:34.356Z,4.40
2019-02-19T06:31:40.153Z,5.27
2019-02-19T06:36:46.612Z,4.77
2019-02-19T06:41:52.306Z,4.70
2019-02-19T06:46:58.023Z,5.50
2019-02-19T06:52:05.963Z,4.53
2019-02-19T06:57:11.585Z,5.20
2019-02-19T07:02:36.080Z,4.80
2019-02-19T07:07:43.289Z,4.87
2019-02-19T07:12:49.943Z,5.00
2019-02-19T07:18:00.343Z,5.27
2019-02-19T07:23:07.809Z,5.50
2019-02-19T07:28:13.458Z,4.90
2019-02-19T07:33:20.058Z,5.60
2019-02-19T07:38:27.734Z,5.97
2019-02-19T07:43:36.521Z,6.07
2019-02-19T07:48:42.409Z,5.77
2019-02-19T07:53:52.396Z,5.27
2019-02-19T07:58:59.782Z,5.80
2019-02-19T08:04:12.951Z,5.40
2019-02-19T08:09:18.649Z,5.37
2019-02-19T08:14:34.982Z,6.00
2019-02-19T08:19:43.650Z,5.50
2019-02-19T08:24:49.383Z,6.00
2019-02-19T08:29:54.961Z,5.53
2019-02-19T08:35:02.925Z,6.27
2019-02-19T08:40:11.363Z,6.27
2019-02-19T08:45:17.141Z,6.50
2019-02-19T08:50:33.905Z,6.10
2019-02-19T08:55:44.358Z,6.80
2019-02-19T09:00:53.195Z,6.60
2019-02-19T09:06:17.607Z,7.53
2019-02-19T09:11:33.976Z,7.07
2019-02-19T09:16:40.217Z,7.20
2019-02-19T09:21:46.076Z,6.90
2019-02-19T09:26:54.149Z,7.03
2019-02-19T09:32:05.077Z,8.07
2019-02-19T09:37:10.714Z,6.70
2019-02-19T09:42:20.912Z,7.37
2019-02-19T09:47:32.416Z,7.37
2019-02-19T09:52:40.394Z,7.10
2019-02-19T09:57:47.515Z,7.20
2019-02-19T10:02:54.718Z,6.67
2019-02-19T10:08:00.732Z,6.77
2019-02-19T10:13:14.529Z,6.20
2019-02-19T10:18:24.023Z,5.50
2019-02-19T10:23:32.939Z,6.00
2019-02-19T10:28:40.775Z,5.87
2019-02-19T10:33:50.288Z,6.70
2019-02-19T10:38:55.940Z,6.50
2019-02-19T10:44:01.698Z,6.23
2019-02-19T10:49:15.115Z,5.80
2019-02-19T10:54:25.056Z,6.30
2019-02-19T10:59:32.072Z,6.47
2019-02-19T11:04:42.756Z,6.03
2019-02-19T11:09:50.467Z,7.10
2019-02-19T11:14:57.233Z,6.30
2019-02-19T11:20:06.452Z,6.47
2019-02-19T11:25:18.506Z,6.50
2019-02-19T11:30:50.185Z,6.10
2019-02-19T11:35:57.087Z,6.50
2019-02-19T11:41:07.460Z,7.13
2019-02-19T11:46:20.843Z,6.87
2019-02-19T11:51:28.560Z,7.90
2019-02-19T11:56:43.114Z,7.70
2019-02-19T12:01:52.711Z,8.07
2019-02-19T12:07:02.112Z,8.40
2019-02-19T12:12:10.733Z,8.40
2019-02-19T12:17:21.176Z,9.57
2019-02-19T12:22:31.422Z,9.97
2019-02-19T12:27:46.218Z,9.90
2019-02-19T12:33:03.538Z,11.07
2019-02-19T12:38:05.281Z,10.20
2019-02-19T12:43:15.132Z,10.07
2019-02-19T12:48:24.896Z,10.60
2019-02-19T12:53:30.873Z,10.30
2019-02-19T12:58:37.030Z,10.67
2019-02-19T13:03:46.302Z,10.43
2019-02-19T13:08:55.904Z,11.30
2019-02-19T13:14:12.694Z,10.70
2019-02-19T13:19:27.261Z,11.73
2019-02-19T13:24:38.950Z,10.27
2019-02-19T13:29:50.181Z,12.60
2019-02-19T13:34:57.807Z,11.03
2019-02-19T13:40:08.604Z,11.80
2019-02-19T13:45:14.761Z,13.27
2019-02-19T13:50:21.853Z,12.10
2019-02-19T13:55:34.159Z,11.17
2019-02-19T14:00:52.016Z,12.13
2019-02-19T14:05:55.019Z,12.27
2019-02-19T14:11:00.952Z,9.90
2019-02-19T14:16:15.723Z,9.30
2019-02-19T14:21:47.371Z,9.90
2019-02-19T14:27:32.580Z,10.33
2019-02-19T14:33:01.074Z,9.50
2019-02-19T14:38:34.469Z,9.00
2019-02-19T14:43:58.824Z,9.47
2019-02-19T14:49:36.668Z,8.40
2019-02-19T14:55:06.829Z,7.97
2019-02-19T15:00:30.733Z,7.50
2019-02-19T15:06:13.391Z,7.37
2019-02-19T15:11:38.468Z,7.17
2019-02-19T15:17:08.693Z,6.03
2019-02-19T15:22:24.295Z,5.10
2019-02-19T15:27:54.930Z,5.20
2019-02-19T15:33:21.984Z,4.30
2019-02-19T15:38:46.577Z,4.03
2019-02-19T15:44:18.350Z,3.77
2019-02-19T15:49:47.752Z,3.63
2019-02-19T15:55:21.066Z,4.50
2019-02-19T16:00:47.014Z,3.40
2019-02-19T16:06:18.445Z,3.90
2019-02-19T16:11:44.137Z,3.90
2019-02-19T16:17:26.818Z,3.70
2019-02-19T16:22:59.204Z,3.20
2019-02-19T16:28:43.054Z,3.87
2019-02-19T16:34:09.034Z,4.60
2019-02-19T16:39:30.950Z,4.90
2019-02-19T16:44:51.135Z,4.37
2019-02-19T16:50:17.119Z,5.40
2019-02-19T16:55:44.036Z,5.20
2019-02-19T17:01:04.946Z,6.03
2019-02-19T17:06:37.836Z,6.03
2019-02-19T17:11:56.307Z,5.63
2019-02-19T17:17:27.947Z,5.80
2019-02-19T17:22:50.886Z,6.67
2019-02-19T17:28:30.915Z,6.53
2019-02-19T17:33:56.039Z,6.50
2019-02-19T17:39:30.403Z,6.70
2019-02-19T17:45:05.060Z,6.40
2019-02-19T17:50:28.143Z,7.07
2019-02-19T17:56:07.138Z,8.13
2019-02-19T18:01:48.322Z,7.03
2019-02-19T18:07:13.750Z,8.00
2019-02-19T18:13:09.161Z,7.73
2019-02-19T18:18:41.643Z,6.83
2019-02-19T18:23:49.531Z,8.13
2019-02-19T18:29:05.164Z,7.50
2019-02-19T18:34:11.045Z,7.63
2019-02-19T18:39:20.587Z,7.67
2019-02-19T18:44:26.738Z,7.77
2019-02-19T18:49:38.317Z,8.37
2019-02-19T18:54:46.956Z,9.03
2019-02-19T18:59:55.410Z,8.93
2019-02-19T19:05:05.331Z,8.63
2019-02-19T19:10:14.935Z,8.20
2019-02-19T19:15:38.028Z,7.93
2019-02-19T19:20:50.044Z,8.43
2019-02-19T19:25:58.224Z,8.83
2019-02-19T19:31:07.379Z,8.10
2019-02-19T19:36:14.953Z,9.07
2019-02-19T19:41:28.328Z,8.17
2019-02-19T19:46:34.592Z,6.90
2019-02-19T19:51:43.764Z,8.17
2019-02-19T19:56:57.530Z,7.30
2019-02-19T20:02:10.040Z,8.00
2019-02-19T20:07:16.046Z,7.20
2019-02-19T20:12:32.210Z,7.30
2019-02-19T20:17:43.158Z,7.80
2019-02-19T20:22:53.615Z,8.10
2019-02-19T20:28:08.508Z,7.20
2019-02-19T20:33:15.942Z,8.50
2019-02-19T20:38:33.078Z,8.10
2019-02-19T20:43:41.141Z,7.73
2019-02-19T20:48:53.019Z,7.90
2019-02-19T20:54:07.553Z,8.73
2019-02-19T20:59:19.554Z,8.57
2019-02-19T21:04:27.852Z,8.80
2019-02-19T21:09:43.958Z,8.30
2019-02-19T21:14:52.358Z,10.07
2019-02-19T21:20:01.016Z,8.60
2019-02-19T21:25:13.609Z,8.33
2019-02-19T21:30:24.970Z,8.83
2019-02-19T21:35:36.305Z,8.50
2019-02-19T21:40:42.530Z,8.53
2019-02-19T21:45:54.458Z,8.60
2019-02-19T21:51:01.914Z,7.80
2019-02-19T21:56:07.864Z,9.17
2019-02-19T22:01:17.810Z,8.53
2019-02-19T22:06:27.210Z,9.33
2019-02-19T22:11:35.537Z,8.30
2019-02-19T22:16:49.177Z,8.70
2019-02-19T22:22:06.896Z,8.63
2019-02-19T22:27:15.990Z,10.17
2019-02-19T22:32:22.914Z,9.60
2019-02-19T22:37:28.674Z,9.60
2019-02-19T22:42:36.309Z,9.70
2019-02-19T22:47:53.165Z,9.13
2019-02-19T22:52:53.041Z,8.70
2019-02-19T22:58:01.746Z,8.97
2019-02-19T23:03:10.860Z,8.67
2019-02-19T23:08:17.630Z,10.27
2019-02-19T23:13:25.235Z,9.50
2019-02-19T23:18:32.046Z,8.13
2019-02-19T23:23:37.873Z,8.67
2019-02-19T23:28:46.810Z,9.63
2019-02-19T23:33:52.487Z,9.50
2019-02-19T23:38:58.197Z,9.40
2019-02-19T23:44:07.709Z,8.47
2019-02-19T23:55:57.923Z,8.50
